Morgenster — PHMY — position and weather

sailwx.info

Track history (hours):
 
Tides and Currents Weather Stations Pressure Air Temp Water Temp Dewpoint Dewpoint Depression Visibility Wind Speed Wind Dir Waves Ship Positions

Morgenster

Last reported at 2016-Nov-29 23:29 UTC. Time now 2016-Dec-10 09:00 UTC.
Position N 38°05' W 009°32'.
Warning: this ship's position is 10 days out of date.

Length 38 m; draft 2.4 m.

Type: Sailing vessel. MMSI: 245136000.

Date/timePositionNaut miles runAvg speedWind from/ knotsBaromVisibWave heightAir tempDewpointWater temp
2016-Nov-29 23:29N 38°05' W 009°32'7 6.3
2016-Nov-29 22:27N 38°12' W 009°31'7 8.2
2016-Nov-29 21:33N 38°19' W 009°28'8 8.1
2016-Nov-29 20:33N 38°27' W 009°26'8 7.5
2016-Nov-29 19:33N 38°34' W 009°26'6 5.8
2016-Nov-29 18:33N 38°40' W 009°25'2 1.6
2016-Nov-29 17:33N 38°41' W 009°24'0 0.0
2016-Nov-29 16:27N 38°41' W 009°24'0 0.0
2016-Nov-29 15:33N 38°41' W 009°24'0 0.0
2016-Nov-29 14:33N 38°41' W 009°24'0 0.0
2016-Nov-29 13:27N 38°41' W 009°24'0 0.0
2016-Nov-29 12:27N 38°41' W 009°24'0 0.0
2016-Nov-29 11:33N 38°41' W 009°24'0 0.0
2016-Nov-29 10:30N 38°41' W 009°24'0 0.0
2016-Nov-29 09:30N 38°41' W 009°24'0 0.0
2016-Nov-29 08:33N 38°41' W 009°24'0 0.0
2016-Nov-29 07:33N 38°41' W 009°24'0 0.0
2016-Nov-29 06:33N 38°41' W 009°24'0 0.0
2016-Nov-29 05:15N 38°41' W 009°24'0 0.0
2016-Nov-29 04:33N 38°41' W 009°24'0 0.0
2016-Nov-29 03:33N 38°41' W 009°24'0 0.0
2016-Nov-29 02:33N 38°41' W 009°24'0 0.0
2016-Nov-29 00:33N 38°41' W 009°24'0 0.0
2016-Nov-28 23:33N 38°41' W 009°24'0 0.0
2016-Nov-28 22:33N 38°41' W 009°24'0 0.0
2016-Nov-28 21:30N 38°41' W 009°24'0 0.0
2016-Nov-28 20:33N 38°41' W 009°24'0 0.0
2016-Nov-28 19:33N 38°41' W 009°24'0 0.0
2016-Nov-28 18:33N 38°41' W 009°24'0 0.0
2016-Nov-28 17:15N 38°41' W 009°24'0 0.0
2016-Nov-28 14:15N 38°41' W 009°24'0 0.0
2016-Nov-28 10:33N 38°41' W 009°24'0 0.1
2016-Nov-28 09:33N 38°41' W 009°24'0 0.0
2016-Nov-28 08:33N 38°41' W 009°24'0 0.0
2016-Nov-28 07:33N 38°41' W 009°24'0 0.0
2016-Nov-28 06:33N 38°41' W 009°24'0 0.1
2016-Nov-28 05:33N 38°41' W 009°24'0 0.0
2016-Nov-28 04:06N 38°41' W 009°24'0 0.0
2016-Nov-28 03:24N 38°41' W 009°24'0 0.0
2016-Nov-28 02:33N 38°41' W 009°24'0 0.0
2016-Nov-28 01:33N 38°41' W 009°24'0 0.0
2016-Nov-28 00:12N 38°41' W 009°24'0 0.0
2016-Nov-27 23:24N 38°41' W 009°24'0 0.0
2016-Nov-27 22:30N 38°41' W 009°24'0 0.0
2016-Nov-27 21:30N 38°41' W 009°24'0 0.0
2016-Nov-27 17:27N 38°41' W 009°24'2 1.3
2016-Nov-27 15:33N 38°41' W 009°27'6 6.5
2016-Nov-27 14:33N 38°46' W 009°33'6 6.1
2016-Nov-27 13:33N 38°51' W 009°36'5 5.2
2016-Nov-27 12:33N 38°56' W 009°38'4 4.2
2016-Nov-27 11:33N 39°01' W 009°38'5 5.0
2016-Nov-27 10:33N 39°06' W 009°39'  
2016-Nov-21 02:30N 50°02' W 003°55'17 8.9
2016-Nov-21 00:33N 50°06' W 003°28'14 7.1
2016-Nov-20 22:33N 50°10' W 003°07'  
Track history (hours):
 
Tides and Currents Weather Stations Pressure Air Temp Water Temp Dewpoint Dewpoint Depression Visibility Wind Speed Wind Dir Waves Ship Positions

Morgenster

Last reported at 2016-Nov-29 23:29 UTC. Time now 2016-Dec-10 09:01 UTC.
Position N 38°05' W 009°32'.
Warning: this ship's position is 10 days out of date.

Length 38 m; draft 2.4 m.

Type: Sailing vessel. MMSI: 245136000.

Date/timePositionNaut miles runAvg speedWind from/ knotsBaromVisibWave heightAir tempDewpointWater temp
2016-Nov-29 23:29N 38°05' W 009°32'7 6.3
2016-Nov-29 22:27N 38°12' W 009°31'7 8.2
2016-Nov-29 21:33N 38°19' W 009°28'8 8.1
2016-Nov-29 20:33N 38°27' W 009°26'8 7.5
2016-Nov-29 19:33N 38°34' W 009°26'6 5.8
2016-Nov-29 18:33N 38°40' W 009°25'2 1.6
2016-Nov-29 17:33N 38°41' W 009°24'0 0.0
2016-Nov-29 16:27N 38°41' W 009°24'0 0.0
2016-Nov-29 15:33N 38°41' W 009°24'0 0.0
2016-Nov-29 14:33N 38°41' W 009°24'0 0.0
2016-Nov-29 13:27N 38°41' W 009°24'0 0.0
2016-Nov-29 12:27N 38°41' W 009°24'0 0.0
2016-Nov-29 11:33N 38°41' W 009°24'0 0.0
2016-Nov-29 10:30N 38°41' W 009°24'0 0.0
2016-Nov-29 09:30N 38°41' W 009°24'0 0.0
2016-Nov-29 08:33N 38°41' W 009°24'0 0.0
2016-Nov-29 07:33N 38°41' W 009°24'0 0.0
2016-Nov-29 06:33N 38°41' W 009°24'0 0.0
2016-Nov-29 05:15N 38°41' W 009°24'0 0.0
2016-Nov-29 04:33N 38°41' W 009°24'0 0.0
2016-Nov-29 03:33N 38°41' W 009°24'0 0.0
2016-Nov-29 02:33N 38°41' W 009°24'0 0.0
2016-Nov-29 00:33N 38°41' W 009°24'0 0.0
2016-Nov-28 23:33N 38°41' W 009°24'0 0.0
2016-Nov-28 22:33N 38°41' W 009°24'0 0.0
2016-Nov-28 21:30N 38°41' W 009°24'0 0.0
2016-Nov-28 20:33N 38°41' W 009°24'0 0.0
2016-Nov-28 19:33N 38°41' W 009°24'0 0.0
2016-Nov-28 18:33N 38°41' W 009°24'0 0.0
2016-Nov-28 17:15N 38°41' W 009°24'0 0.0
2016-Nov-28 14:15N 38°41' W 009°24'0 0.0
2016-Nov-28 10:33N 38°41' W 009°24'0 0.1
2016-Nov-28 09:33N 38°41' W 009°24'0 0.0
2016-Nov-28 08:33N 38°41' W 009°24'0 0.0
2016-Nov-28 07:33N 38°41' W 009°24'0 0.0
2016-Nov-28 06:33N 38°41' W 009°24'0 0.1
2016-Nov-28 05:33N 38°41' W 009°24'0 0.0
2016-Nov-28 04:06N 38°41' W 009°24'0 0.0
2016-Nov-28 03:24N 38°41' W 009°24'0 0.0
2016-Nov-28 02:33N 38°41' W 009°24'0 0.0
2016-Nov-28 01:33N 38°41' W 009°24'0 0.0
2016-Nov-28 00:12N 38°41' W 009°24'0 0.0
2016-Nov-27 23:24N 38°41' W 009°24'0 0.0
2016-Nov-27 22:30N 38°41' W 009°24'0 0.0
2016-Nov-27 21:30N 38°41' W 009°24'0 0.0
2016-Nov-27 17:27N 38°41' W 009°24'2 1.3
2016-Nov-27 15:33N 38°41' W 009°27'6 6.5
2016-Nov-27 14:33N 38°46' W 009°33'6 6.1
2016-Nov-27 13:33N 38°51' W 009°36'5 5.2
2016-Nov-27 12:33N 38°56' W 009°38'4 4.2
2016-Nov-27 11:33N 39°01' W 009°38'5 5.0
2016-Nov-27 10:33N 39°06' W 009°39'  
2016-Nov-21 02:30N 50°02' W 003°55'17 8.9
2016-Nov-21 00:33N 50°06' W 003°28'14 7.1
2016-Nov-20 22:33N 50°10' W 003°07'  

Dump ship's entire track history